createdAt,value
2023-01-20T00:01:12.317Z,14.32
2023-01-20T00:04:54.081Z,13.00
2023-01-20T00:08:35.992Z,13.18
2023-01-20T00:12:17.938Z,12.43
2023-01-20T00:16:02.128Z,12.65
2023-01-20T00:19:43.898Z,13.23
2023-01-20T00:23:25.623Z,12.20
2023-01-20T00:27:07.659Z,11.93
2023-01-20T00:30:49.528Z,13.00
2023-01-20T00:34:31.379Z,10.93
2023-01-20T00:38:13.227Z,11.70
2023-01-20T00:41:54.999Z,11.95
2023-01-20T00:45:36.765Z,12.85
2023-01-20T00:49:18.542Z,12.82
2023-01-20T00:53:00.329Z,12.68
2023-01-20T00:56:42.095Z,11.55
2023-01-20T01:00:24.043Z,11.55
2023-01-20T01:04:05.934Z,12.23
2023-01-20T01:07:47.677Z,10.63
2023-01-20T01:11:29.419Z,10.50
2023-01-20T01:15:12.104Z,10.18
2023-01-20T01:18:55.047Z,10.73
2023-01-20T01:22:36.768Z,10.43
2023-01-20T01:26:18.665Z,9.40
2023-01-20T01:30:00.437Z,9.18
2023-01-20T01:33:42.634Z,9.73
2023-01-20T01:37:24.510Z,8.70
2023-01-20T01:41:06.613Z,8.50
2023-01-20T01:45:28.041Z,8.43
2023-01-20T01:49:42.060Z,9.02
2023-01-20T01:53:25.066Z,9.45
2023-01-20T01:57:08.579Z,9.63
2023-01-20T02:00:50.821Z,10.63
2023-01-20T02:04:33.879Z,8.93
2023-01-20T02:08:16.004Z,9.40
2023-01-20T02:12:02.738Z,9.13
2023-01-20T02:16:29.702Z,9.27
2023-01-20T02:24:26.745Z,8.85
2023-01-20T02:28:46.103Z,10.35
2023-01-20T02:32:49.821Z,10.18
2023-01-20T02:36:41.440Z,10.02
2023-01-20T02:40:32.745Z,11.40
2023-01-20T02:44:26.980Z,10.13
2023-01-20T02:48:22.577Z,11.50
2023-01-20T02:52:17.122Z,11.40
2023-01-20T02:55:59.610Z,12.27
2023-01-20T02:59:46.215Z,12.30
2023-01-20T03:03:35.790Z,12.20
2023-01-20T03:07:21.520Z,13.18
2023-01-20T03:11:06.764Z,12.07
2023-01-20T03:14:52.110Z,12.48
2023-01-20T03:18:34.874Z,11.65
2023-01-20T03:22:17.044Z,11.60
2023-01-20T03:25:59.192Z,12.43
2023-01-20T03:29:40.983Z,12.70
2023-01-20T03:33:23.538Z,14.23
2023-01-20T03:37:06.668Z,13.60
2023-01-20T03:41:04.155Z,14.23
2023-01-20T03:45:05.175Z,15.75
2023-01-20T03:48:52.074Z,14.60
2023-01-20T03:52:47.586Z,16.40
2023-01-20T03:56:35.815Z,17.67
2023-01-20T04:00:20.271Z,17.52
2023-01-20T04:04:04.247Z,18.60
2023-01-20T04:07:46.902Z,17.10
2023-01-20T04:11:29.619Z,17.60
2023-01-20T04:15:11.934Z,18.58
2023-01-20T04:18:54.539Z,18.33
2023-01-20T04:22:53.402Z,19.77
2023-01-20T04:26:35.295Z,18.45
2023-01-20T04:30:17.338Z,20.45
2023-01-20T04:33:59.106Z,22.52
2023-01-20T04:37:41.156Z,20.20
2023-01-20T04:41:23.037Z,18.45
2023-01-20T04:45:05.452Z,21.80
2023-01-20T04:48:47.260Z,22.15
2023-01-20T04:52:29.010Z,21.77
2023-01-20T04:56:15.266Z,21.00
2023-01-20T04:59:57.020Z,20.90
2023-01-20T05:03:38.803Z,23.75
2023-01-20T05:07:20.579Z,19.92
2023-01-20T05:11:02.556Z,21.08
2023-01-20T05:14:44.285Z,21.50
2023-01-20T05:18:26.041Z,19.85
2023-01-20T05:22:07.864Z,20.15
2023-01-20T05:25:53.292Z,21.50
2023-01-20T05:29:35.101Z,18.98
2023-01-20T05:33:16.944Z,19.55
2023-01-20T05:36:58.677Z,17.75
2023-01-20T05:40:40.447Z,19.33
2023-01-20T05:44:22.209Z,17.98
2023-01-20T05:48:04.439Z,19.50
2023-01-20T05:51:46.203Z,19.45
2023-01-20T05:55:27.999Z,18.80
2023-01-20T05:59:09.883Z,19.30
2023-01-20T06:02:51.732Z,18.80
2023-01-20T06:06:33.961Z,20.40
2023-01-20T06:10:17.160Z,18.38
2023-01-20T06:13:58.960Z,18.13
2023-01-20T06:17:40.708Z,18.77
2023-01-20T06:21:22.533Z,17.63
2023-01-20T06:25:05.054Z,18.67
2023-01-20T06:28:46.763Z,18.38
2023-01-20T06:32:28.590Z,17.95
2023-01-20T06:36:13.789Z,18.33
2023-01-20T06:39:55.663Z,19.45
2023-01-20T06:43:40.168Z,19.05
2023-01-20T06:47:22.001Z,19.48
2023-01-20T06:51:10.251Z,20.23
2023-01-20T06:54:51.989Z,19.20
2023-01-20T06:58:34.236Z,20.45
2023-01-20T07:02:16.132Z,18.80
2023-01-20T07:06:01.576Z,17.52
2023-01-20T07:09:43.387Z,17.25
2023-01-20T07:13:25.194Z,18.55
2023-01-20T07:17:11.759Z,17.02
2023-01-20T07:20:55.256Z,16.70
2023-01-20T07:24:37.396Z,17.23
2023-01-20T07:28:19.116Z,18.30
2023-01-20T07:32:00.962Z,17.20
2023-01-20T07:35:42.727Z,18.65
2023-01-20T07:39:24.490Z,18.83
2023-01-20T07:43:06.238Z,19.05
2023-01-20T07:47:03.126Z,19.35
2023-01-20T07:50:44.926Z,19.45
2023-01-20T07:54:26.671Z,18.48
2023-01-20T07:58:08.397Z,18.42
2023-01-20T08:01:50.230Z,18.52
2023-01-20T08:05:32.551Z,16.90
2023-01-20T08:09:15.066Z,20.38
2023-01-20T08:12:58.090Z,19.50
2023-01-20T08:16:39.891Z,19.20
2023-01-20T08:20:21.938Z,20.10
2023-01-20T08:24:05.531Z,20.05
2023-01-20T08:27:49.384Z,19.10
2023-01-20T08:31:31.493Z,21.40
2023-01-20T08:35:13.801Z,19.52
2023-01-20T08:38:57.673Z,21.27
2023-01-20T08:42:40.180Z,17.35
2023-01-20T08:46:22.848Z,14.38
2023-01-20T08:50:06.697Z,16.02
2023-01-20T08:53:49.407Z,13.38
2023-01-20T08:57:31.252Z,13.55
2023-01-20T09:01:19.198Z,11.65
2023-01-20T09:05:00.938Z,10.10
2023-01-20T09:08:42.798Z,14.05
2023-01-20T09:12:24.549Z,11.75
2023-01-20T09:16:06.683Z,8.45
2023-01-20T09:19:48.556Z,5.80
2023-01-20T09:23:30.296Z,5.50
2023-01-20T09:27:12.113Z,5.03
2023-01-20T09:31:08.329Z,4.88
2023-01-20T09:34:50.158Z,5.20
2023-01-20T09:38:50.583Z,4.93
2023-01-20T09:43:13.685Z,4.00
2023-01-20T09:47:19.988Z,4.47
2023-01-20T09:51:28.372Z,4.15
2023-01-20T09:55:28.018Z,3.88
2023-01-20T09:59:36.666Z,3.60
2023-01-20T10:03:27.252Z,3.53
2023-01-20T10:07:15.299Z,3.63
2023-01-20T10:11:12.577Z,3.70
2023-01-20T10:19:08.440Z,2.70
2023-01-20T10:23:01.021Z,3.42
2023-01-20T10:26:58.000Z,2.50
2023-01-20T10:34:22.594Z,3.15
2023-01-20T10:38:08.892Z,2.40
2023-01-20T10:41:54.862Z,3.13
2023-01-20T10:46:12.233Z,3.25
2023-01-20T10:50:10.455Z,3.03
2023-01-20T10:54:23.915Z,2.35
2023-01-20T10:58:14.766Z,3.25
2023-01-20T11:02:11.410Z,1.98
2023-01-20T11:05:54.242Z,2.83
2023-01-20T11:09:37.813Z,1.80
2023-01-20T11:13:19.692Z,2.45
2023-01-20T11:17:05.261Z,1.65
2023-01-20T11:20:56.548Z,1.63
2023-01-20T11:24:45.482Z,2.33
2023-01-20T11:28:35.280Z,2.90
2023-01-20T11:32:29.430Z,2.75
2023-01-20T11:36:23.945Z,2.00
2023-01-20T11:40:23.624Z,2.17
2023-01-20T11:44:07.078Z,2.42
2023-01-20T11:48:18.420Z,2.00
2023-01-20T11:52:01.006Z,2.10
2023-01-20T11:55:51.227Z,1.88
2023-01-20T11:59:35.439Z,2.13
2023-01-20T12:03:49.474Z,1.70
2023-01-20T12:07:45.548Z,1.58
2023-01-20T12:11:42.925Z,2.13
2023-01-20T12:15:31.912Z,2.35
2023-01-20T12:19:18.024Z,2.85
2023-01-20T12:23:23.680Z,2.10
2023-01-20T12:27:05.536Z,2.25
2023-01-20T12:31:01.867Z,2.38
2023-01-20T12:38:26.515Z,2.70
2023-01-20T12:42:14.087Z,2.33
2023-01-20T12:46:14.422Z,2.33
2023-01-20T12:50:17.838Z,2.33
2023-01-20T12:54:47.469Z,2.60
2023-01-20T12:58:49.937Z,2.80
2023-01-20T13:03:09.436Z,2.20
2023-01-20T13:07:18.935Z,3.72
2023-01-20T13:11:09.728Z,2.47
2023-01-20T13:15:18.081Z,3.17
2023-01-20T13:19:28.021Z,4.10
2023-01-20T13:23:15.016Z,4.15
2023-01-20T13:30:44.126Z,2.65
2023-01-20T13:34:30.818Z,4.32
2023-01-20T13:38:20.500Z,4.05
2023-01-20T13:42:02.299Z,2.70
2023-01-20T13:45:44.158Z,2.58
2023-01-20T13:49:28.820Z,2.67
2023-01-20T13:53:10.528Z,2.38
2023-01-20T13:56:52.656Z,2.40
2023-01-20T14:00:34.416Z,3.10
2023-01-20T14:04:21.881Z,2.38
2023-01-20T14:08:04.456Z,2.00
2023-01-20T14:11:51.360Z,1.65
2023-01-20T14:15:36.692Z,1.70
2023-01-20T14:19:23.320Z,2.17
2023-01-20T14:23:24.565Z,1.65
2023-01-20T14:27:17.556Z,1.90
2023-01-20T14:31:25.729Z,1.65
2023-01-20T14:35:31.105Z,1.52
2023-01-20T14:39:21.755Z,1.85
2023-01-20T14:43:19.570Z,1.63
2023-01-20T14:47:03.436Z,1.83
2023-01-20T14:50:49.706Z,2.05
2023-01-20T14:54:34.541Z,1.67
2023-01-20T14:58:18.292Z,1.70
2023-01-20T15:02:05.505Z,1.67
2023-01-20T15:10:04.325Z,1.63
2023-01-20T15:13:57.187Z,1.67
2023-01-20T15:18:11.042Z,1.65
2023-01-20T15:21:58.436Z,2.05
2023-01-20T15:25:40.202Z,2.08
2023-01-20T15:29:24.220Z,2.05
2023-01-20T15:33:08.521Z,1.67
2023-01-20T15:36:52.111Z,1.88
2023-01-20T15:40:35.626Z,1.80
2023-01-20T15:44:17.370Z,2.40
2023-01-20T15:47:59.636Z,2.40
2023-01-20T15:51:42.726Z,2.45
2023-01-20T15:55:24.572Z,2.88
2023-01-20T15:59:13.965Z,2.50
2023-01-20T16:02:55.791Z,3.63
2023-01-20T16:06:37.813Z,4.45
2023-01-20T16:10:19.951Z,3.67
2023-01-20T16:14:01.702Z,3.53
2023-01-20T16:17:43.865Z,4.30
2023-01-20T16:21:25.784Z,3.97
2023-01-20T16:25:08.887Z,4.35
2023-01-20T16:28:51.681Z,4.53
2023-01-20T16:32:33.436Z,4.20
2023-01-20T16:36:18.559Z,4.80
2023-01-20T16:40:00.318Z,4.50
2023-01-20T16:43:42.308Z,4.47
2023-01-20T16:47:24.072Z,6.57
2023-01-20T16:51:06.518Z,7.15
2023-01-20T16:54:48.292Z,7.47
2023-01-20T16:58:30.022Z,6.53
2023-01-20T17:02:12.095Z,7.05
2023-01-20T17:05:57.446Z,9.13
2023-01-20T17:09:39.257Z,7.80
2023-01-20T17:13:21.025Z,8.52
2023-01-20T17:17:02.808Z,8.23
2023-01-20T17:20:44.740Z,8.05
2023-01-20T17:24:26.686Z,8.95
2023-01-20T17:28:08.448Z,9.65
2023-01-20T17:31:50.418Z,9.02
2023-01-20T17:35:32.194Z,10.43
2023-01-20T17:39:14.039Z,10.40
2023-01-20T17:42:55.798Z,12.40
2023-01-20T17:46:37.547Z,18.27
2023-01-20T17:50:19.343Z,14.48
2023-01-20T17:54:03.585Z,10.23
2023-01-20T17:57:45.823Z,10.65
2023-01-20T18:01:29.917Z,10.05
2023-01-20T18:05:11.671Z,11.18
2023-01-20T18:08:58.882Z,9.70
2023-01-20T18:12:41.005Z,11.57
2023-01-20T18:16:28.801Z,11.35
2023-01-20T18:20:12.057Z,11.45
2023-01-20T18:23:54.466Z,11.27
2023-01-20T18:27:36.235Z,11.10
2023-01-20T18:31:20.095Z,11.85
2023-01-20T18:35:01.972Z,9.98
2023-01-20T18:38:44.028Z,15.10
2023-01-20T18:42:25.867Z,13.10
2023-01-20T18:46:08.747Z,12.13
2023-01-20T18:49:50.613Z,12.63
2023-01-20T18:53:32.789Z,13.60
2023-01-20T18:57:14.564Z,13.68
2023-01-20T19:01:03.766Z,14.75
2023-01-20T19:04:45.627Z,15.65
2023-01-20T19:08:27.512Z,15.10
2023-01-20T19:12:09.307Z,15.85
2023-01-20T19:15:52.671Z,16.00
2023-01-20T19:19:34.494Z,16.88
2023-01-20T19:23:16.506Z,14.45
2023-01-20T19:27:00.586Z,14.40
2023-01-20T19:30:42.414Z,12.85
2023-01-20T19:34:25.519Z,14.32
2023-01-20T19:38:07.419Z,14.27
2023-01-20T19:41:49.168Z,13.07
2023-01-20T19:45:44.793Z,13.23
2023-01-20T19:49:27.309Z,13.77
2023-01-20T19:53:09.050Z,13.30
2023-01-20T19:56:53.191Z,13.95
2023-01-20T20:00:34.985Z,15.55
2023-01-20T20:04:20.636Z,14.95
2023-01-20T20:08:02.673Z,15.88
2023-01-20T20:11:44.924Z,14.98
2023-01-20T20:15:26.720Z,15.57
2023-01-20T20:19:11.762Z,13.57
2023-01-20T20:22:54.305Z,12.98
2023-01-20T20:26:37.816Z,11.18
2023-01-20T20:30:19.586Z,11.55
2023-01-20T20:34:03.179Z,12.70
2023-01-20T20:37:48.021Z,14.27
2023-01-20T20:41:31.688Z,13.43
2023-01-20T20:45:13.652Z,12.43
2023-01-20T20:48:59.227Z,14.93
2023-01-20T20:52:41.030Z,13.63
2023-01-20T20:56:23.251Z,13.98
2023-01-20T21:00:06.274Z,14.10
2023-01-20T21:03:48.013Z,14.60
2023-01-20T21:07:29.792Z,13.80
2023-01-20T21:11:13.047Z,15.65
2023-01-20T21:14:54.806Z,15.35
2023-01-20T21:18:38.218Z,14.60
2023-01-20T21:22:20.077Z,21.00
2023-01-20T21:26:04.055Z,17.27
2023-01-20T21:29:46.545Z,17.25
2023-01-20T21:33:28.326Z,15.82
2023-01-20T21:37:10.147Z,15.38
2023-01-20T21:41:01.291Z,14.40
2023-01-20T21:44:43.282Z,16.08
2023-01-20T21:48:43.516Z,15.35
2023-01-20T21:52:45.347Z,16.35
2023-01-20T21:56:27.114Z,16.65
2023-01-20T22:00:10.230Z,17.00
2023-01-20T22:03:51.958Z,16.25
2023-01-20T22:07:33.719Z,16.45
2023-01-20T22:11:15.495Z,14.32
2023-01-20T22:14:57.245Z,15.40
2023-01-20T22:18:39.023Z,14.48
2023-01-20T22:22:21.181Z,15.43
2023-01-20T22:26:03.630Z,14.48
2023-01-20T22:29:46.152Z,15.77
2023-01-20T22:33:27.941Z,15.80
2023-01-20T22:37:09.716Z,14.98
2023-01-20T22:40:51.459Z,16.73
2023-01-20T22:44:33.236Z,17.27
2023-01-20T22:48:15.052Z,16.33
2023-01-20T22:51:56.914Z,17.23
2023-01-20T22:55:48.874Z,16.13
2023-01-20T22:59:37.723Z,15.20
2023-01-20T23:03:19.953Z,16.58
2023-01-20T23:07:01.763Z,17.65
2023-01-20T23:10:46.208Z,16.85
2023-01-20T23:14:46.574Z,15.52
2023-01-20T23:18:29.573Z,14.35
2023-01-20T23:22:11.371Z,15.90
2023-01-20T23:26:05.183Z,16.77
2023-01-20T23:29:49.187Z,15.95
2023-01-20T23:33:31.433Z,15.15
2023-01-20T23:37:13.731Z,14.80
2023-01-20T23:40:55.515Z,15.88
2023-01-20T23:44:37.279Z,15.65
2023-01-20T23:48:19.078Z,15.02
2023-01-20T23:52:00.811Z,17.02
2023-01-20T23:55:42.617Z,18.42
2023-01-20T23:59:24.407Z,16.20
